sensor_id;sensor_type;location;lat;lon;timestamp;pressure;altitude;pressure_sealevel;temperature;humidity
550;BME280;20066;48.764;9.176;2023-01-29T00:01:28;99295.31;;;2.51;62.42
550;BME280;20066;48.764;9.176;2023-01-29T00:03:56;99305.38;;;2.93;61.81
550;BME280;20066;48.764;9.176;2023-01-29T00:06:24;99302.91;;;3.76;58.86
550;BME280;20066;48.764;9.176;2023-01-29T00:08:52;99301.97;;;2.70;61.42
550;BME280;20066;48.764;9.176;2023-01-29T00:11:21;99308.47;;;3.57;59.15
550;BME280;20066;48.764;9.176;2023-01-29T00:13:50;99293.69;;;3.90;58.36
550;BME280;20066;48.764;9.176;2023-01-29T00:16:18;99307.63;;;4.05;56.64
550;BME280;20066;48.764;9.176;2023-01-29T00:18:46;99314.13;;;3.25;58.69
550;BME280;20066;48.764;9.176;2023-01-29T00:21:15;99301.16;;;3.23;58.41
550;BME280;20066;48.764;9.176;2023-01-29T00:23:44;99301.53;;;3.39;59.62
550;BME280;20066;48.764;9.176;2023-01-29T00:26:12;99299.03;;;3.03;59.37
550;BME280;20066;48.764;9.176;2023-01-29T00:28:41;99294.88;;;3.59;58.75
550;BME280;20066;48.764;9.176;2023-01-29T00:31:11;99298.19;;;3.73;57.07
550;BME280;20066;48.764;9.176;2023-01-29T00:33:39;99301.03;;;4.02;57.18
550;BME280;20066;48.764;9.176;2023-01-29T00:36:09;99301.84;;;2.98;59.51
550;BME280;20066;48.764;9.176;2023-01-29T00:38:37;99288.59;;;3.06;58.54
550;BME280;20066;48.764;9.176;2023-01-29T00:41:06;99283.56;;;3.44;58.97
550;BME280;20066;48.764;9.176;2023-01-29T00:43:49;99295.03;;;3.14;59.38
550;BME280;20066;48.764;9.176;2023-01-29T00:46:34;99291.31;;;3.24;60.00
550;BME280;20066;48.764;9.176;2023-01-29T00:49:02;99292.03;;;2.54;61.15
550;BME280;20066;48.764;9.176;2023-01-29T00:51:30;99297.84;;;2.87;61.42
550;BME280;20066;48.764;9.176;2023-01-29T00:53:58;99300.34;;;3.14;59.97
550;BME280;20066;48.764;9.176;2023-01-29T00:56:26;99291.22;;;2.98;60.47
550;BME280;20066;48.764;9.176;2023-01-29T00:58:56;99295.16;;;3.09;60.13
550;BME280;20066;48.764;9.176;2023-01-29T01:01:24;99296.03;;;2.20;62.65
550;BME280;20066;48.764;9.176;2023-01-29T01:04:06;99293.53;;;2.91;62.05
550;BME280;20066;48.764;9.176;2023-01-29T01:06:36;99298.41;;;3.37;60.08
550;BME280;20066;48.764;9.176;2023-01-29T01:09:04;99290.28;;;3.42;57.97
550;BME280;20066;48.764;9.176;2023-01-29T01:11:50;99292.75;;;3.38;59.46
550;BME280;20066;48.764;9.176;2023-01-29T01:14:19;99287.28;;;2.95;60.05
550;BME280;20066;48.764;9.176;2023-01-29T01:16:47;99292.38;;;2.16;61.10
550;BME280;20066;48.764;9.176;2023-01-29T01:19:16;99296.50;;;1.86;64.01
550;BME280;20066;48.764;9.176;2023-01-29T01:21:43;99285.75;;;1.55;64.13
550;BME280;20066;48.764;9.176;2023-01-29T01:24:14;99289.84;;;2.78;61.21
550;BME280;20066;48.764;9.176;2023-01-29T01:26:42;99287.31;;;2.73;60.61
550;BME280;20066;48.764;9.176;2023-01-29T01:29:10;99288.88;;;2.74;60.05
550;BME280;20066;48.764;9.176;2023-01-29T01:31:39;99287.84;;;3.14;59.60
550;BME280;20066;48.764;9.176;2023-01-29T01:34:07;99285.53;;;2.60;59.76
550;BME280;20066;48.764;9.176;2023-01-29T01:36:34;99281.13;;;2.55;60.89
550;BME280;20066;48.764;9.176;2023-01-29T01:39:02;99286.47;;;2.64;60.04
550;BME280;20066;48.764;9.176;2023-01-29T01:41:30;99288.34;;;2.63;61.12
550;BME280;20066;48.764;9.176;2023-01-29T01:43:59;99288.53;;;2.22;61.20
550;BME280;20066;48.764;9.176;2023-01-29T01:46:28;99291.44;;;2.57;60.22
550;BME280;20066;48.764;9.176;2023-01-29T01:49:01;99282.56;;;2.39;62.12
550;BME280;20066;48.764;9.176;2023-01-29T01:51:32;99282.75;;;2.43;60.19
550;BME280;20066;48.764;9.176;2023-01-29T01:54:05;99282.97;;;2.10;61.18
550;BME280;20066;48.764;9.176;2023-01-29T01:56:36;99272.72;;;2.17;61.59
550;BME280;20066;48.764;9.176;2023-01-29T01:59:08;99270.75;;;2.67;60.16
550;BME280;20066;48.764;9.176;2023-01-29T02:01:37;99278.81;;;2.62;60.34
550;BME280;20066;48.764;9.176;2023-01-29T02:04:11;99287.34;;;2.28;61.11
550;BME280;20066;48.764;9.176;2023-01-29T02:07:00;99278.06;;;1.54;62.68
550;BME280;20066;48.764;9.176;2023-01-29T02:09:49;99275.59;;;1.71;63.47
550;BME280;20066;48.764;9.176;2023-01-29T02:12:19;99284.06;;;2.09;63.24
550;BME280;20066;48.764;9.176;2023-01-29T02:14:47;99288.78;;;2.34;61.29
550;BME280;20066;48.764;9.176;2023-01-29T02:17:16;99289.44;;;1.82;62.99
550;BME280;20066;48.764;9.176;2023-01-29T02:19:54;99289.25;;;1.78;61.96
550;BME280;20066;48.764;9.176;2023-01-29T02:23:02;99294.63;;;2.23;61.51
550;BME280;20066;48.764;9.176;2023-01-29T02:26:08;99292.31;;;1.72;63.54
550;BME280;20066;48.764;9.176;2023-01-29T02:28:46;99286.72;;;1.73;62.90
550;BME280;20066;48.764;9.176;2023-01-29T02:31:24;99294.53;;;1.78;61.47
550;BME280;20066;48.764;9.176;2023-01-29T02:34:00;99301.06;;;2.08;61.18
550;BME280;20066;48.764;9.176;2023-01-29T02:36:38;99299.72;;;1.83;63.06
550;BME280;20066;48.764;9.176;2023-01-29T02:39:13;99291.16;;;2.00;61.69
550;BME280;20066;48.764;9.176;2023-01-29T02:41:45;99286.25;;;1.57;62.96
550;BME280;20066;48.764;9.176;2023-01-29T02:44:22;99288.41;;;2.05;61.66
550;BME280;20066;48.764;9.176;2023-01-29T02:46:56;99290.25;;;1.55;62.61
550;BME280;20066;48.764;9.176;2023-01-29T02:49:31;99287.88;;;1.81;61.07
550;BME280;20066;48.764;9.176;2023-01-29T02:52:05;99294.38;;;2.33;60.54
550;BME280;20066;48.764;9.176;2023-01-29T02:54:39;99296.38;;;2.27;60.08
550;BME280;20066;48.764;9.176;2023-01-29T02:57:15;99294.16;;;2.43;59.48
550;BME280;20066;48.764;9.176;2023-01-29T02:59:48;99286.63;;;2.59;58.15
550;BME280;20066;48.764;9.176;2023-01-29T03:02:24;99283.91;;;2.28;59.31
550;BME280;20066;48.764;9.176;2023-01-29T03:04:58;99278.25;;;3.05;57.59
550;BME280;20066;48.764;9.176;2023-01-29T03:07:30;99288.31;;;3.17;58.07
550;BME280;20066;48.764;9.176;2023-01-29T03:10:13;99286.72;;;3.64;55.49
550;BME280;20066;48.764;9.176;2023-01-29T03:12:46;99283.97;;;3.21;57.33
550;BME280;20066;48.764;9.176;2023-01-29T03:15:23;99286.44;;;3.65;56.28
550;BME280;20066;48.764;9.176;2023-01-29T03:17:57;99282.66;;;3.09;57.78
550;BME280;20066;48.764;9.176;2023-01-29T03:20:32;99287.19;;;2.11;59.17
550;BME280;20066;48.764;9.176;2023-01-29T03:23:05;99277.09;;;2.35;60.66
550;BME280;20066;48.764;9.176;2023-01-29T03:25:35;99292.50;;;2.11;60.38
550;BME280;20066;48.764;9.176;2023-01-29T03:28:23;99280.25;;;2.02;60.22
550;BME280;20066;48.764;9.176;2023-01-29T03:31:11;99278.53;;;2.19;61.29
550;BME280;20066;48.764;9.176;2023-01-29T03:34:00;99282.59;;;2.03;60.54
550;BME280;20066;48.764;9.176;2023-01-29T03:36:33;99291.06;;;2.72;59.27
550;BME280;20066;48.764;9.176;2023-01-29T03:39:05;99277.38;;;2.34;60.56
550;BME280;20066;48.764;9.176;2023-01-29T03:41:36;99282.91;;;2.68;59.07
550;BME280;20066;48.764;9.176;2023-01-29T03:44:13;99277.28;;;3.40;57.03
550;BME280;20066;48.764;9.176;2023-01-29T03:46:49;99278.28;;;2.29;58.32
550;BME280;20066;48.764;9.176;2023-01-29T03:49:25;99286.28;;;2.16;60.13
550;BME280;20066;48.764;9.176;2023-01-29T03:51:59;99286.75;;;2.85;58.86
550;BME280;20066;48.764;9.176;2023-01-29T03:54:34;99278.22;;;2.96;57.85
550;BME280;20066;48.764;9.176;2023-01-29T03:57:12;99281.38;;;2.98;57.05
550;BME280;20066;48.764;9.176;2023-01-29T03:59:47;99290.41;;;3.28;56.73
550;BME280;20066;48.764;9.176;2023-01-29T04:02:21;99281.75;;;3.71;55.52
550;BME280;20066;48.764;9.176;2023-01-29T04:04:55;99283.50;;;3.27;56.63
550;BME280;20066;48.764;9.176;2023-01-29T04:07:24;99284.28;;;3.76;55.48
550;BME280;20066;48.764;9.176;2023-01-29T04:09:55;99293.53;;;2.46;58.75
550;BME280;20066;48.764;9.176;2023-01-29T04:12:27;99293.44;;;2.51;58.93
550;BME280;20066;48.764;9.176;2023-01-29T04:14:57;99287.19;;;3.09;57.54
550;BME280;20066;48.764;9.176;2023-01-29T04:17:32;99290.09;;;3.30;56.16
550;BME280;20066;48.764;9.176;2023-01-29T04:20:01;99289.03;;;3.48;56.11
550;BME280;20066;48.764;9.176;2023-01-29T04:22:31;99292.88;;;3.25;56.36
550;BME280;20066;48.764;9.176;2023-01-29T04:25:03;99291.03;;;2.94;56.54
550;BME280;20066;48.764;9.176;2023-01-29T04:27:43;99294.97;;;2.30;59.39
550;BME280;20066;48.764;9.176;2023-01-29T04:30:22;99292.97;;;2.80;58.29
550;BME280;20066;48.764;9.176;2023-01-29T04:33:10;99298.50;;;2.92;57.21
550;BME280;20066;48.764;9.176;2023-01-29T04:35:51;99298.59;;;2.12;59.63
550;BME280;20066;48.764;9.176;2023-01-29T04:38:27;99294.41;;;1.97;60.69
550;BME280;20066;48.764;9.176;2023-01-29T04:41:04;99296.63;;;1.81;60.02
550;BME280;20066;48.764;9.176;2023-01-29T04:43:38;99294.03;;;2.48;59.51
550;BME280;20066;48.764;9.176;2023-01-29T04:46:12;99286.97;;;2.21;59.42
550;BME280;20066;48.764;9.176;2023-01-29T04:48:54;99283.91;;;1.92;59.39
550;BME280;20066;48.764;9.176;2023-01-29T04:51:31;99277.97;;;2.31;58.25
550;BME280;20066;48.764;9.176;2023-01-29T04:54:07;99285.38;;;1.98;60.79
550;BME280;20066;48.764;9.176;2023-01-29T04:56:44;99284.97;;;2.49;58.71
550;BME280;20066;48.764;9.176;2023-01-29T04:59:18;99297.50;;;2.80;56.92
550;BME280;20066;48.764;9.176;2023-01-29T05:01:48;99288.41;;;3.03;56.90
550;BME280;20066;48.764;9.176;2023-01-29T05:04:18;99287.47;;;2.68;58.54
550;BME280;20066;48.764;9.176;2023-01-29T05:06:47;99293.19;;;2.92;58.16
550;BME280;20066;48.764;9.176;2023-01-29T05:09:17;99293.41;;;2.73;57.94
550;BME280;20066;48.764;9.176;2023-01-29T05:11:45;99291.88;;;2.50;57.90
550;BME280;20066;48.764;9.176;2023-01-29T05:14:18;99295.34;;;2.82;57.72
550;BME280;20066;48.764;9.176;2023-01-29T05:16:50;99297.59;;;2.66;58.43
550;BME280;20066;48.764;9.176;2023-01-29T05:19:20;99291.47;;;2.88;57.79
550;BME280;20066;48.764;9.176;2023-01-29T05:21:48;99284.81;;;2.76;58.70
550;BME280;20066;48.764;9.176;2023-01-29T05:24:19;99288.00;;;2.87;57.01
550;BME280;20066;48.764;9.176;2023-01-29T05:26:49;99290.97;;;3.17;57.60
550;BME280;20066;48.764;9.176;2023-01-29T05:29:35;99293.38;;;2.20;60.13
550;BME280;20066;48.764;9.176;2023-01-29T05:32:03;99301.31;;;2.20;60.73
550;BME280;20066;48.764;9.176;2023-01-29T05:34:32;99298.66;;;3.27;56.84
550;BME280;20066;48.764;9.176;2023-01-29T05:37:00;99312.28;;;2.94;58.00
550;BME280;20066;48.764;9.176;2023-01-29T05:39:28;99302.34;;;1.47;63.23
550;BME280;20066;48.764;9.176;2023-01-29T05:41:55;99296.75;;;2.34;59.39
550;BME280;20066;48.764;9.176;2023-01-29T05:44:23;99292.56;;;2.64;58.54
550;BME280;20066;48.764;9.176;2023-01-29T05:46:51;99287.19;;;1.62;60.39
550;BME280;20066;48.764;9.176;2023-01-29T05:49:19;99285.06;;;1.50;63.21
550;BME280;20066;48.764;9.176;2023-01-29T05:51:49;99281.97;;;0.74;63.99
550;BME280;20066;48.764;9.176;2023-01-29T05:54:17;99267.19;;;1.91;60.62
550;BME280;20066;48.764;9.176;2023-01-29T05:56:44;99256.97;;;2.65;59.32
550;BME280;20066;48.764;9.176;2023-01-29T05:59:13;99253.53;;;2.96;58.41
550;BME280;20066;48.764;9.176;2023-01-29T06:01:41;99243.13;;;3.17;55.59
550;BME280;20066;48.764;9.176;2023-01-29T06:04:09;99246.28;;;3.27;56.09
550;BME280;20066;48.764;9.176;2023-01-29T06:06:37;99247.63;;;3.73;54.70
550;BME280;20066;48.764;9.176;2023-01-29T06:09:06;99257.22;;;4.00;54.52
550;BME280;20066;48.764;9.176;2023-01-29T06:11:33;99260.22;;;2.93;57.19
550;BME280;20066;48.764;9.176;2023-01-29T06:14:01;99258.13;;;1.70;60.80
550;BME280;20066;48.764;9.176;2023-01-29T06:16:29;99262.47;;;2.24;59.20
550;BME280;20066;48.764;9.176;2023-01-29T06:18:57;99260.00;;;2.50;58.26
550;BME280;20066;48.764;9.176;2023-01-29T06:21:25;99266.84;;;2.07;59.74
550;BME280;20066;48.764;9.176;2023-01-29T06:23:53;99266.22;;;2.68;58.28
550;BME280;20066;48.764;9.176;2023-01-29T06:26:22;99276.94;;;2.94;57.70
550;BME280;20066;48.764;9.176;2023-01-29T06:28:50;99270.28;;;2.43;58.53
550;BME280;20066;48.764;9.176;2023-01-29T06:31:17;99281.09;;;2.78;57.67
550;BME280;20066;48.764;9.176;2023-01-29T06:34:03;99270.88;;;2.40;58.38
550;BME280;20066;48.764;9.176;2023-01-29T06:36:31;99272.41;;;1.33;62.62
550;BME280;20066;48.764;9.176;2023-01-29T06:38:58;99278.97;;;2.35;58.78
550;BME280;20066;48.764;9.176;2023-01-29T06:41:27;99284.03;;;1.87;61.55
550;BME280;20066;48.764;9.176;2023-01-29T06:43:55;99281.03;;;1.25;62.91
550;BME280;20066;48.764;9.176;2023-01-29T06:46:23;99274.91;;;1.79;61.86
550;BME280;20066;48.764;9.176;2023-01-29T06:48:51;99285.47;;;2.51;59.32
550;BME280;20066;48.764;9.176;2023-01-29T06:51:18;99285.25;;;2.70;58.35
550;BME280;20066;48.764;9.176;2023-01-29T06:53:46;99277.81;;;3.11;57.19
550;BME280;20066;48.764;9.176;2023-01-29T06:56:14;99278.03;;;3.32;56.75
550;BME280;20066;48.764;9.176;2023-01-29T06:58:43;99279.84;;;2.53;58.12
550;BME280;20066;48.764;9.176;2023-01-29T07:01:11;99291.72;;;2.55;58.88
550;BME280;20066;48.764;9.176;2023-01-29T07:03:58;99291.97;;;2.45;58.44
550;BME280;20066;48.764;9.176;2023-01-29T07:06:27;99291.44;;;2.34;58.90
550;BME280;20066;48.764;9.176;2023-01-29T07:08:55;99295.66;;;2.58;58.94
550;BME280;20066;48.764;9.176;2023-01-29T07:11:23;99298.41;;;2.97;57.31
550;BME280;20066;48.764;9.176;2023-01-29T07:13:52;99284.63;;;2.42;59.39
550;BME280;20066;48.764;9.176;2023-01-29T07:16:20;99296.47;;;2.89;57.28
550;BME280;20066;48.764;9.176;2023-01-29T07:18:48;99291.72;;;3.08;56.26
550;BME280;20066;48.764;9.176;2023-01-29T07:21:16;99294.53;;;3.51;55.01
550;BME280;20066;48.764;9.176;2023-01-29T07:23:44;99292.88;;;2.94;56.96
550;BME280;20066;48.764;9.176;2023-01-29T07:26:12;99290.88;;;3.39;55.21
550;BME280;20066;48.764;9.176;2023-01-29T07:28:40;99295.53;;;3.81;54.31
550;BME280;20066;48.764;9.176;2023-01-29T07:31:11;99294.16;;;3.84;53.20
550;BME280;20066;48.764;9.176;2023-01-29T07:33:41;99299.97;;;3.07;55.97
550;BME280;20066;48.764;9.176;2023-01-29T07:36:10;99300.94;;;2.80;56.79
550;BME280;20066;48.764;9.176;2023-01-29T07:38:38;99306.03;;;2.68;58.70
550;BME280;20066;48.764;9.176;2023-01-29T07:41:05;99311.88;;;2.12;58.67
550;BME280;20066;48.764;9.176;2023-01-29T07:43:33;99312.75;;;2.65;57.66
550;BME280;20066;48.764;9.176;2023-01-29T07:46:02;99311.25;;;1.79;58.94
550;BME280;20066;48.764;9.176;2023-01-29T07:48:32;99318.28;;;2.55;58.29
550;BME280;20066;48.764;9.176;2023-01-29T07:51:00;99314.75;;;2.60;57.68
550;BME280;20066;48.764;9.176;2023-01-29T07:53:28;99320.38;;;2.22;58.82
550;BME280;20066;48.764;9.176;2023-01-29T07:55:56;99319.28;;;1.87;59.70
550;BME280;20066;48.764;9.176;2023-01-29T07:58:24;99325.16;;;2.56;58.22
550;BME280;20066;48.764;9.176;2023-01-29T08:00:51;99331.56;;;3.39;55.60
550;BME280;20066;48.764;9.176;2023-01-29T08:03:19;99332.75;;;2.27;59.59
550;BME280;20066;48.764;9.176;2023-01-29T08:05:48;99331.16;;;2.04;59.57
550;BME280;20066;48.764;9.176;2023-01-29T08:08:16;99327.53;;;2.58;58.80
550;BME280;20066;48.764;9.176;2023-01-29T08:10:44;99325.88;;;2.70;56.02
550;BME280;20066;48.764;9.176;2023-01-29T08:13:12;99324.88;;;3.11;55.35
550;BME280;20066;48.764;9.176;2023-01-29T08:15:42;99324.59;;;2.23;58.13
550;BME280;20066;48.764;9.176;2023-01-29T08:18:11;99322.66;;;3.04;56.57
550;BME280;20066;48.764;9.176;2023-01-29T08:20:38;99322.34;;;3.06;56.34
550;BME280;20066;48.764;9.176;2023-01-29T08:23:13;99324.91;;;2.89;56.88
550;BME280;20066;48.764;9.176;2023-01-29T08:25:41;99329.00;;;2.95;56.36
550;BME280;20066;48.764;9.176;2023-01-29T08:28:09;99334.31;;;2.95;56.99
550;BME280;20066;48.764;9.176;2023-01-29T08:30:38;99345.25;;;3.24;56.55
550;BME280;20066;48.764;9.176;2023-01-29T08:33:05;99344.19;;;2.14;58.47
550;BME280;20066;48.764;9.176;2023-01-29T08:35:33;99352.09;;;1.78;60.35
550;BME280;20066;48.764;9.176;2023-01-29T08:38:02;99338.88;;;2.72;58.31
550;BME280;20066;48.764;9.176;2023-01-29T08:40:33;99340.72;;;1.50;61.39
550;BME280;20066;48.764;9.176;2023-01-29T08:43:02;99342.22;;;2.42;58.20
550;BME280;20066;48.764;9.176;2023-01-29T08:45:35;99348.13;;;2.38;57.78
550;BME280;20066;48.764;9.176;2023-01-29T08:48:04;99343.88;;;2.51;58.08
550;BME280;20066;48.764;9.176;2023-01-29T08:50:32;99355.63;;;3.03;57.14
550;BME280;20066;48.764;9.176;2023-01-29T08:53:01;99354.53;;;2.02;58.06
550;BME280;20066;48.764;9.176;2023-01-29T08:55:31;99355.16;;;2.57;57.72
550;BME280;20066;48.764;9.176;2023-01-29T08:57:59;99357.97;;;3.05;55.56
550;BME280;20066;48.764;9.176;2023-01-29T09:00:26;99357.59;;;3.20;55.71
550;BME280;20066;48.764;9.176;2023-01-29T09:02:54;99349.53;;;3.03;55.77
550;BME280;20066;48.764;9.176;2023-01-29T09:05:22;99345.63;;;2.78;57.48
550;BME280;20066;48.764;9.176;2023-01-29T09:07:50;99350.84;;;2.25;58.66
550;BME280;20066;48.764;9.176;2023-01-29T09:10:19;99355.22;;;2.43;57.37
550;BME280;20066;48.764;9.176;2023-01-29T09:12:48;99353.75;;;1.19;61.92
550;BME280;20066;48.764;9.176;2023-01-29T09:15:16;99356.84;;;2.17;58.50
550;BME280;20066;48.764;9.176;2023-01-29T09:17:45;99364.38;;;3.04;57.37
550;BME280;20066;48.764;9.176;2023-01-29T09:20:15;99364.91;;;2.92;56.13
550;BME280;20066;48.764;9.176;2023-01-29T09:22:43;99355.50;;;2.86;57.18
550;BME280;20066;48.764;9.176;2023-01-29T09:25:11;99361.91;;;3.47;54.85
550;BME280;20066;48.764;9.176;2023-01-29T09:27:40;99361.00;;;2.90;55.76
550;BME280;20066;48.764;9.176;2023-01-29T09:30:10;99355.09;;;2.70;56.36
550;BME280;20066;48.764;9.176;2023-01-29T09:32:38;99370.38;;;3.49;54.86
550;BME280;20066;48.764;9.176;2023-01-29T09:35:22;99369.69;;;3.74;52.83
550;BME280;20066;48.764;9.176;2023-01-29T09:37:49;99366.34;;;4.00;51.79
550;BME280;20066;48.764;9.176;2023-01-29T09:40:23;99368.72;;;3.31;53.33
550;BME280;20066;48.764;9.176;2023-01-29T09:42:55;99363.59;;;2.36;55.78
550;BME280;20066;48.764;9.176;2023-01-29T09:45:27;99359.44;;;2.89;55.94
550;BME280;20066;48.764;9.176;2023-01-29T09:47:57;99354.59;;;4.26;52.44
550;BME280;20066;48.764;9.176;2023-01-29T09:50:28;99355.28;;;2.74;54.91
550;BME280;20066;48.764;9.176;2023-01-29T09:53:00;99354.00;;;2.49;56.47
550;BME280;20066;48.764;9.176;2023-01-29T09:55:31;99350.16;;;3.08;55.70
550;BME280;20066;48.764;9.176;2023-01-29T09:58:04;99328.94;;;2.86;54.38
550;BME280;20066;48.764;9.176;2023-01-29T10:00:38;99319.97;;;2.29;57.04
550;BME280;20066;48.764;9.176;2023-01-29T10:03:22;99310.72;;;2.71;55.84
550;BME280;20066;48.764;9.176;2023-01-29T10:06:06;99309.97;;;3.41;54.55
550;BME280;20066;48.764;9.176;2023-01-29T10:08:58;99298.03;;;2.59;56.47
550;BME280;20066;48.764;9.176;2023-01-29T10:11:37;99294.59;;;3.21;54.92
550;BME280;20066;48.764;9.176;2023-01-29T10:14:16;99292.13;;;3.98;52.79
550;BME280;20066;48.764;9.176;2023-01-29T10:16:59;99291.66;;;4.05;52.51
550;BME280;20066;48.764;9.176;2023-01-29T10:19:45;99285.50;;;5.28;50.21
550;BME280;20066;48.764;9.176;2023-01-29T10:22:43;99284.09;;;2.85;54.51
550;BME280;20066;48.764;9.176;2023-01-29T10:25:18;99280.63;;;4.92;50.92
550;BME280;20066;48.764;9.176;2023-01-29T10:27:48;99281.66;;;4.53;51.69
550;BME280;20066;48.764;9.176;2023-01-29T10:30:27;99285.50;;;4.82;50.84
550;BME280;20066;48.764;9.176;2023-01-29T10:33:01;99292.09;;;5.31;50.00
550;BME280;20066;48.764;9.176;2023-01-29T10:35:33;99300.88;;;4.33;51.19
550;BME280;20066;48.764;9.176;2023-01-29T10:38:15;99293.09;;;5.76;48.73
550;BME280;20066;48.764;9.176;2023-01-29T10:40:52;99291.34;;;4.41;50.06
550;BME280;20066;48.764;9.176;2023-01-29T10:43:29;99288.50;;;5.18;50.03
550;BME280;20066;48.764;9.176;2023-01-29T10:46:09;99295.09;;;4.48;51.58
550;BME280;20066;48.764;9.176;2023-01-29T10:48:51;99304.22;;;5.11;50.88
550;BME280;20066;48.764;9.176;2023-01-29T10:51:40;99297.28;;;4.29;51.36
550;BME280;20066;48.764;9.176;2023-01-29T10:54:27;99286.78;;;4.32;51.22
550;BME280;20066;48.764;9.176;2023-01-29T10:57:08;99289.56;;;3.19;54.83
550;BME280;20066;48.764;9.176;2023-01-29T10:59:48;99287.22;;;4.78;50.84
550;BME280;20066;48.764;9.176;2023-01-29T11:02:19;99292.72;;;4.73;51.44
550;BME280;20066;48.764;9.176;2023-01-29T11:04:49;99290.56;;;5.13;49.85
550;BME280;20066;48.764;9.176;2023-01-29T11:07:18;99295.09;;;5.21;48.95
550;BME280;20066;48.764;9.176;2023-01-29T11:09:52;99289.28;;;4.03;51.75
550;BME280;20066;48.764;9.176;2023-01-29T11:12:24;99285.75;;;5.06;49.99
550;BME280;20066;48.764;9.176;2023-01-29T11:15:00;99299.00;;;4.68;50.27
550;BME280;20066;48.764;9.176;2023-01-29T11:17:29;99290.06;;;4.73;51.16
550;BME280;20066;48.764;9.176;2023-01-29T11:19:58;99284.03;;;5.90;48.07
550;BME280;20066;48.764;9.176;2023-01-29T11:22:27;99278.66;;;5.77;48.36
550;BME280;20066;48.764;9.176;2023-01-29T11:25:09;99282.16;;;6.11;47.45
550;BME280;20066;48.764;9.176;2023-01-29T11:27:44;99282.94;;;5.70;48.46
550;BME280;20066;48.764;9.176;2023-01-29T11:30:20;99276.34;;;5.67;48.73
550;BME280;20066;48.764;9.176;2023-01-29T11:32:53;99276.63;;;6.49;46.50
550;BME280;20066;48.764;9.176;2023-01-29T11:35:25;99263.25;;;6.37;45.76
550;BME280;20066;48.764;9.176;2023-01-29T11:38:05;99246.34;;;5.91;46.94
550;BME280;20066;48.764;9.176;2023-01-29T11:40:36;99247.13;;;5.92;47.55
550;BME280;20066;48.764;9.176;2023-01-29T11:43:21;99249.81;;;5.41;48.00
550;BME280;20066;48.764;9.176;2023-01-29T11:45:51;99249.47;;;4.76;50.10
550;BME280;20066;48.764;9.176;2023-01-29T11:48:21;99246.78;;;5.22;49.26
550;BME280;20066;48.764;9.176;2023-01-29T11:50:52;99242.47;;;4.11;51.79
550;BME280;20066;48.764;9.176;2023-01-29T11:53:25;99245.38;;;4.78;51.17
550;BME280;20066;48.764;9.176;2023-01-29T11:56:00;99238.28;;;5.29;48.74
550;BME280;20066;48.764;9.176;2023-01-29T11:58:31;99235.56;;;4.36;50.73
550;BME280;20066;48.764;9.176;2023-01-29T12:00:59;99239.09;;;6.12;47.35
550;BME280;20066;48.764;9.176;2023-01-29T12:03:33;99244.31;;;5.47;48.44
550;BME280;20066;48.764;9.176;2023-01-29T12:06:05;99232.44;;;5.35;47.94
550;BME280;20066;48.764;9.176;2023-01-29T12:08:37;99222.56;;;4.98;49.46
550;BME280;20066;48.764;9.176;2023-01-29T12:11:11;99211.00;;;5.73;47.89
550;BME280;20066;48.764;9.176;2023-01-29T12:13:40;99203.16;;;4.89;49.70
550;BME280;20066;48.764;9.176;2023-01-29T12:16:18;99193.41;;;5.72;48.04
550;BME280;20066;48.764;9.176;2023-01-29T12:18:52;99191.50;;;6.47;46.97
550;BME280;20066;48.764;9.176;2023-01-29T12:21:30;99186.63;;;3.59;52.56
550;BME280;20066;48.764;9.176;2023-01-29T12:24:03;99180.31;;;3.29;54.83
550;BME280;20066;48.764;9.176;2023-01-29T12:26:35;99173.44;;;4.14;52.87
550;BME280;20066;48.764;9.176;2023-01-29T12:29:22;99163.59;;;4.15;52.42
550;BME280;20066;48.764;9.176;2023-01-29T12:31:59;99158.38;;;4.82;52.10
550;BME280;20066;48.764;9.176;2023-01-29T12:34:36;99146.72;;;5.16;49.47
550;BME280;20066;48.764;9.176;2023-01-29T12:37:18;99134.69;;;4.51;51.23
550;BME280;20066;48.764;9.176;2023-01-29T12:39:48;99132.38;;;4.71;50.54
550;BME280;20066;48.764;9.176;2023-01-29T12:42:19;99121.53;;;3.82;54.26
550;BME280;20066;48.764;9.176;2023-01-29T12:44:51;99126.94;;;5.47;49.97
550;BME280;20066;48.764;9.176;2023-01-29T12:47:22;99124.94;;;5.76;48.87
550;BME280;20066;48.764;9.176;2023-01-29T12:49:54;99121.13;;;5.44;49.58
550;BME280;20066;48.764;9.176;2023-01-29T12:52:34;99111.25;;;6.11;48.74
550;BME280;20066;48.764;9.176;2023-01-29T12:55:09;99116.09;;;5.97;47.92
550;BME280;20066;48.764;9.176;2023-01-29T12:57:43;99115.66;;;6.52;47.50
550;BME280;20066;48.764;9.176;2023-01-29T13:00:15;99114.16;;;5.52;48.54
550;BME280;20066;48.764;9.176;2023-01-29T13:02:49;99106.91;;;5.73;49.31
550;BME280;20066;48.764;9.176;2023-01-29T13:05:23;99097.03;;;4.91;50.22
550;BME280;20066;48.764;9.176;2023-01-29T13:07:57;99107.13;;;5.27;50.10
550;BME280;20066;48.764;9.176;2023-01-29T13:10:30;99106.22;;;5.97;49.35
550;BME280;20066;48.764;9.176;2023-01-29T13:13:02;99097.72;;;6.52;46.74
550;BME280;20066;48.764;9.176;2023-01-29T13:15:34;99100.97;;;7.07;45.66
550;BME280;20066;48.764;9.176;2023-01-29T13:18:22;99087.59;;;6.46;46.64
550;BME280;20066;48.764;9.176;2023-01-29T13:20:55;99082.25;;;6.58;46.06
550;BME280;20066;48.764;9.176;2023-01-29T13:23:31;99090.47;;;6.41;45.74
550;BME280;20066;48.764;9.176;2023-01-29T13:26:00;99088.72;;;6.45;45.93
550;BME280;20066;48.764;9.176;2023-01-29T13:28:29;99082.03;;;6.51;46.69
550;BME280;20066;48.764;9.176;2023-01-29T13:31:13;99081.50;;;7.34;44.62
550;BME280;20066;48.764;9.176;2023-01-29T13:33:42;99086.19;;;5.91;46.78
550;BME280;20066;48.764;9.176;2023-01-29T13:36:17;99089.72;;;6.65;46.93
550;BME280;20066;48.764;9.176;2023-01-29T13:38:54;99086.78;;;6.33;47.01
550;BME280;20066;48.764;9.176;2023-01-29T13:41:31;99097.38;;;6.42;47.49
550;BME280;20066;48.764;9.176;2023-01-29T13:44:00;99089.59;;;6.49;47.00
550;BME280;20066;48.764;9.176;2023-01-29T13:46:28;99088.72;;;6.93;46.34
550;BME280;20066;48.764;9.176;2023-01-29T13:48:58;99091.97;;;5.39;47.86
550;BME280;20066;48.764;9.176;2023-01-29T13:51:33;99096.50;;;6.86;46.30
550;BME280;20066;48.764;9.176;2023-01-29T13:54:06;99092.16;;;6.57;47.41
550;BME280;20066;48.764;9.176;2023-01-29T13:56:44;99102.03;;;6.33;47.45
550;BME280;20066;48.764;9.176;2023-01-29T13:59:21;99094.06;;;6.81;46.67
550;BME280;20066;48.764;9.176;2023-01-29T14:02:18;99098.22;;;5.43;48.21